Time;durP1;ratioP1;P1;durP2;ratioP2;P2;SDS_P1;SDS_P2;PMS_P1;PMS_P2;Temp;Humidity;BMP_temperature;BMP_pressure;BME280_temperature;BME280_humidity;BME280_pressure;Samples;Min_cycle;Max_cycle;Signal;HPM_P1;HPM_P2
2024/01/17 00:00:03;;;;;;;;;;;;;;;6.22;51.09;99709.47;4996992;28;20310;-88
2024/01/17 00:02:28;;;;;;;;;;;;;;;6.19;50.71;99712.38;4996883;28;19913;-87
2024/01/17 00:04:54;;;;;;;;;;;;;;;6.13;50.95;99718.22;5014672;28;19913;-88
2024/01/17 00:07:20;;;;;;;;;;;;;;;6.13;50.93;99731.31;4996853;28;20000;-90
2024/01/17 00:09:45;;;;;;;;;;;;;;;6.10;51.61;99722.91;4996902;28;20059;-90
2024/01/17 00:12:11;;;;;;;;;;;;;;;6.08;51.88;99707.34;5014556;28;20004;-88
2024/01/17 00:14:36;;;;;;;;;;;;;;;6.01;51.96;99706.28;4996632;28;19921;-87
2024/01/17 00:17:01;;;;;;;;;;;;;;;5.98;52.56;99704.75;4996807;28;19913;-90
2024/01/17 00:19:29;;;;;;;;;;;;;;;5.98;52.38;99715.25;5014182;28;19914;-88
2024/01/17 00:21:55;;;;;;;;;;;;;;;5.99;52.31;99727.38;4996552;28;19920;-89
2024/01/17 00:24:20;;;;;;;;;;;;;;;5.95;52.04;99728.63;4996647;28;20441;-83
2024/01/17 00:26:45;;;;;;;;;;;;;;;5.92;52.62;99720.22;5014685;28;19918;-85
2024/01/17 00:29:11;;;;;;;;;;;;;;;5.88;52.77;99727.50;5014183;28;19996;-89
2024/01/17 00:31:36;;;;;;;;;;;;;;;5.87;52.99;99727.66;5014293;28;20403;-88
2024/01/17 00:34:01;;;;;;;;;;;;;;;5.86;52.55;99718.97;5014059;28;19918;-89
2024/01/17 00:36:26;;;;;;;;;;;;;;;5.85;52.45;99732.19;4996635;28;19914;-89
2024/01/17 00:38:52;;;;;;;;;;;;;;;5.82;52.63;99740.34;4996250;28;19920;-89
2024/01/17 00:41:18;;;;;;;;;;;;;;;5.79;52.90;99743.25;4996243;28;20361;-89
2024/01/17 00:43:43;;;;;;;;;;;;;;;5.75;52.90;99734.84;4996277;28;19914;-88
2024/01/17 00:46:08;;;;;;;;;;;;;;;5.67;52.55;99739.97;4996315;28;19914;-88
2024/01/17 00:48:34;;;;;;;;;;;;;;;5.64;52.80;99746.31;5013814;28;19913;-89
2024/01/17 00:50:59;;;;;;;;;;;;;;;5.63;52.79;99728.97;5013647;28;20010;-88
2024/01/17 00:53:24;;;;;;;;;;;;;;;5.62;52.56;99726.47;4996142;28;19922;-88
2024/01/17 00:55:49;;;;;;;;;;;;;;;5.57;53.07;99721.66;5013367;28;19914;-89
2024/01/17 00:58:15;;;;;;;;;;;;;;;5.58;53.07;99722.50;5013672;28;20018;-89
2024/01/17 01:00:40;;;;;;;;;;;;;;;5.57;52.85;99711.19;5013566;28;19921;-89
2024/01/17 01:03:06;;;;;;;;;;;;;;;5.53;53.07;99707.19;4995971;28;19913;-88
2024/01/17 01:05:31;;;;;;;;;;;;;;;5.48;53.35;99700.75;4995787;28;20419;-89
2024/01/17 01:07:56;;;;;;;;;;;;;;;5.37;53.33;99693.88;5013648;28;20009;-88
2024/01/17 01:10:21;;;;;;;;;;;;;;;5.35;53.40;99694.00;5013753;28;19914;-89
2024/01/17 01:12:47;;;;;;;;;;;;;;;5.35;53.48;99701.88;4995784;28;19918;-89
2024/01/17 01:15:12;;;;;;;;;;;;;;;5.34;53.51;99696.78;4995694;28;19944;-89
2024/01/17 01:17:38;;;;;;;;;;;;;;;5.31;53.62;99697.06;4995774;28;20353;-89
2024/01/17 01:20:03;;;;;;;;;;;;;;;5.29;53.83;99699.00;5013330;28;19914;-89
2024/01/17 01:22:28;;;;;;;;;;;;;;;5.23;53.68;99699.56;5013353;28;19921;-90
2024/01/17 01:24:54;;;;;;;;;;;;;;;5.20;53.77;99707.66;4995713;28;19917;-88
2024/01/17 01:27:19;;;;;;;;;;;;;;;5.14;54.91;99716.88;5013124;28;20009;-89
2024/01/17 01:29:44;;;;;;;;;;;;;;;5.02;54.74;99723.22;4995402;28;19924;-89
2024/01/17 01:32:09;;;;;;;;;;;;;;;4.93;54.79;99724.88;5012967;28;20000;-89
2024/01/17 01:34:35;;;;;;;;;;;;;;;4.85;54.80;99719.50;5013039;28;19917;-87
2024/01/17 01:37:01;;;;;;;;;;;;;;;4.85;55.01;99716.91;5012934;28;19913;-87
2024/01/17 01:39:26;;;;;;;;;;;;;;;4.85;54.88;99722.13;4995328;28;19913;-88
2024/01/17 01:41:51;;;;;;;;;;;;;;;4.84;55.08;99730.13;4995523;28;19913;-88
2024/01/17 01:44:17;;;;;;;;;;;;;;;4.81;55.62;99719.91;5012878;28;19914;-88
2024/01/17 01:46:43;;;;;;;;;;;;;;;4.79;54.90;99717.44;4995217;28;19919;-87
2024/01/17 01:49:09;;;;;;;;;;;;;;;4.79;54.99;99713.03;5012948;28;20383;-87
2024/01/17 01:51:34;;;;;;;;;;;;;;;4.79;54.81;99714.81;5012860;28;19972;-88
2024/01/17 01:54:01;;;;;;;;;;;;;;;4.71;55.28;99705.06;4995163;28;19918;-88
2024/01/17 01:56:29;;;;;;;;;;;;;;;4.71;55.10;99705.06;4995047;28;19920;-88
2024/01/17 01:58:55;;;;;;;;;;;;;;;4.71;55.45;99710.28;4995236;28;19914;-88
2024/01/17 02:01:21;;;;;;;;;;;;;;;4.72;55.44;99718.97;5012560;28;20425;-87
2024/01/17 02:03:46;;;;;;;;;;;;;;;4.69;55.39;99719.22;5012433;28;19913;-87
2024/01/17 02:06:12;;;;;;;;;;;;;;;4.66;55.32;99714.25;5012286;28;20353;-87
2024/01/17 02:08:38;;;;;;;;;;;;;;;4.62;55.48;99705.03;5012363;28;19921;-87
2024/01/17 02:11:03;;;;;;;;;;;;;;;4.56;55.22;99693.34;5012473;28;20296;-86
2024/01/17 02:13:29;;;;;;;;;;;;;;;4.50;55.37;99698.28;4994261;28;20008;-85
2024/01/17 02:15:54;;;;;;;;;;;;;;;4.48;55.23;99685.34;4995397;28;20405;-86
2024/01/17 02:18:44;;;;;;;;;;;;;;;4.46;55.78;99684.66;4996338;28;19913;-84
2024/01/17 02:21:10;;;;;;;;;;;;;;;4.42;56.22;99694.53;5018929;28;19922;-84
2024/01/17 02:23:36;;;;;;;;;;;;;;;4.41;55.60;99698.09;4997517;28;20299;-85
2024/01/17 02:26:11;;;;;;;;;;;;;;;4.38;55.99;99697.53;4997701;28;19914;-84
2024/01/17 02:28:36;;;;;;;;;;;;;;;4.37;55.92;99699.34;5022546;28;19928;-84
2024/01/17 02:31:01;;;;;;;;;;;;;;;4.37;56.06;99690.66;5019047;28;19948;-85
2024/01/17 02:34:00;;;;;;;;;;;;;;;4.28;56.09;99683.63;5020477;28;19929;-84
2024/01/17 02:36:32;;;;;;;;;;;;;;;4.24;56.39;99692.69;4990696;28;19921;-84
2024/01/17 02:39:25;;;;;;;;;;;;;;;4.23;56.04;99701.50;4958564;28;19978;-83
2024/01/17 02:42:03;;;;;;;;;;;;;;;4.19;56.53;99695.72;4976138;28;19926;-83
2024/01/17 02:44:50;;;;;;;;;;;;;;;4.18;56.48;99701.91;4996828;28;19906;-83
2024/01/17 02:50:28;;;;;;;;;;;;;;;4.09;56.96;99697.47;4999211;28;20003;-84
2024/01/17 02:53:22;;;;;;;;;;;;;;;4.03;56.50;99698.00;4960623;28;19960;-85
2024/01/17 02:56:02;;;;;;;;;;;;;;;3.99;56.65;99705.28;4928848;28;19913;-85
2024/01/17 02:58:42;;;;;;;;;;;;;;;3.97;56.82;99714.22;4928758;28;19934;-85
2024/01/17 03:01:55;;;;;;;;;;;;;;;3.97;56.68;99701.16;4955521;28;19974;-84
2024/01/17 03:05:06;;;;;;;;;;;;;;;3.95;56.78;99716.97;4960595;28;19907;-86
2024/01/17 03:10:39;;;;;;;;;;;;;;;3.76;56.81;99709.88;4965072;28;19972;-86
2024/01/17 03:13:08;;;;;;;;;;;;;;;3.76;56.69;99706.44;4979706;28;19919;-85
2024/01/17 03:15:54;;;;;;;;;;;;;;;3.73;56.98;99715.34;4944884;28;19960;-86
2024/01/17 03:24:35;;;;;;;;;;;;;;;3.65;57.18;99707.31;5059029;23;19918;-85
2024/01/17 03:27:08;;;;;;;;;;;;;;;3.64;57.30;99708.25;4966887;28;19911;-85
2024/01/17 03:32:42;;;;;;;;;;;;;;;3.62;57.30;99707.56;4983233;28;19980;-84
2024/01/17 03:38:22;;;;;;;;;;;;;;;3.55;58.14;99716.03;4962800;29;19922;-83
2024/01/17 03:43:58;;;;;;;;;;;;;;;3.56;57.42;99730.75;4982775;28;19913;-84
2024/01/17 03:49:57;;;;;;;;;;;;;;;3.61;57.28;99741.63;5076170;22;19910;-85
2024/01/17 03:58:17;;;;;;;;;;;;;;;3.56;57.42;99747.25;5096107;22;19910;-85
2024/01/17 04:01:04;;;;;;;;;;;;;;;3.51;57.58;99738.97;5002990;28;19929;-84
2024/01/17 04:06:50;;;;;;;;;;;;;;;3.46;57.63;99736.75;4944041;29;19914;-86
2024/01/17 04:09:46;;;;;;;;;;;;;;;3.40;57.69;99749.47;4944167;29;19922;-84
2024/01/17 04:12:20;;;;;;;;;;;;;;;3.37;57.82;99750.56;4943987;29;19907;-85
2024/01/17 04:14:49;;;;;;;;;;;;;;;3.35;57.98;99749.88;4943617;29;19954;-83
2024/01/17 04:17:57;;;;;;;;;;;;;;;3.33;57.57;99745.72;4912530;29;19967;-85
2024/01/17 04:23:22;;;;;;;;;;;;;;;3.31;57.86;99756.28;5042925;22;19910;-83
2024/01/17 04:35:04;;;;;;;;;;;;;;;3.22;57.80;99785.75;5123132;22;19934;-82
2024/01/17 04:37:39;;;;;;;;;;;;;;;3.21;58.37;99785.88;5018806;28;19941;-82
2024/01/17 04:40:21;;;;;;;;;;;;;;;3.16;58.21;99786.25;4988256;28;19910;-83
2024/01/17 04:45:34;;;;;;;;;;;;;;;3.08;58.19;99788.66;5074674;22;19933;-82
2024/01/17 04:48:01;;;;;;;;;;;;;;;3.08;58.19;99805.13;4984996;28;19922;-83
2024/01/17 05:01:29;;;;;;;;;;;;;;;3.07;57.74;99815.69;5118246;22;19917;-85
2024/01/17 05:09:39;;;;;;;;;;;;;;;2.99;58.04;99803.25;5015751;28;19932;-83
2024/01/17 05:18:04;;;;;;;;;;;;;;;2.97;58.06;99814.75;5201550;23;19910;-83
2024/01/17 05:23:23;;;;;;;;;;;;;;;3.00;57.63;99810.13;5382832;23;19918;-82
2024/01/17 05:29:13;;;;;;;;;;;;;;;3.04;58.10;99815.94;5020644;28;19920;-82
2024/01/17 05:31:48;;;;;;;;;;;;;;;3.04;58.04;99883.75;5116105;22;19922;-82
2024/01/17 05:34:25;;;;;;;;;;;;;;;3.02;58.04;99823.06;5037796;23;19909;-83
2024/01/17 05:49:20;;;;;;;;;;;;;;;2.92;59.00;99841.19;5059927;22;19930;-83
2024/01/17 05:52:06;;;;;;;;;;;;;;;2.94;58.42;99844.50;4997351;28;19910;-82
2024/01/17 05:54:37;;;;;;;;;;;;;;;2.92;58.37;99845.56;4949961;28;19945;-81
2024/01/17 05:57:14;;;;;;;;;;;;;;;2.92;57.83;99837.75;4999477;28;19922;-82
2024/01/17 05:59:45;;;;;;;;;;;;;;;2.91;58.09;99849.13;5029697;23;19910;-82
2024/01/17 06:02:13;;;;;;;;;;;;;;;2.91;58.45;99855.19;5017680;28;19921;-82
2024/01/17 06:07:56;;;;;;;;;;;;;;;2.92;57.81;99871.66;5020085;28;19913;-82
2024/01/17 06:10:44;;;;;;;;;;;;;;;2.91;58.17;99876.03;5019627;28;19928;-82
2024/01/17 06:13:21;;;;;;;;;;;;;;;2.80;57.90;99876.06;5389382;22;19909;-82
2024/01/17 06:27:36;;;;;;;;;;;;;;;2.62;58.61;99878.31;5177693;23;19909;-83
2024/01/17 06:30:26;;;;;;;;;;;;;;;2.62;58.25;99890.53;4982409;28;19910;-83
2024/01/17 06:35:33;;;;;;;;;;;;;;;2.60;58.37;99872.41;4985401;22;19911;-85
2024/01/17 06:40:52;;;;;;;;;;;;;;;2.66;58.44;99889.34;4884724;22;19917;-83
2024/01/17 06:44:03;;;;;;;;;;;;;;;2.67;58.30;99878.78;5083134;23;19917;-82
2024/01/17 06:47:26;;;;;;;;;;;;;;;2.74;58.68;99873.94;5018798;28;19910;-82
2024/01/17 06:49:54;;;;;;;;;;;;;;;2.74;58.41;99872.16;5018837;28;19926;-82
2024/01/17 06:58:06;;;;;;;;;;;;;;;2.85;58.80;99893.00;5259316;23;19925;-83
2024/01/17 07:03:14;;;;;;;;;;;;;;;2.91;58.59;99886.47;5244739;23;19925;-81
2024/01/17 07:05:41;;;;;;;;;;;;;;;2.94;58.16;99891.44;5006257;28;19910;-82
2024/01/17 07:08:07;;;;;;;;;;;;;;;2.95;58.33;99892.28;5054873;23;20532;-83
2024/01/17 07:11:05;;;;;;;;;;;;;;;2.93;58.58;99897.63;4985460;28;19929;-82
2024/01/17 07:16:42;;;;;;;;;;;;;;;3.09;58.20;99892.03;4760980;22;19916;-84
2024/01/17 07:19:40;;;;;;;;;;;;;;;3.15;58.12;99894.16;5022565;28;19913;-84
2024/01/17 07:22:44;;;;;;;;;;;;;;;3.22;58.02;99897.94;4982754;28;19946;-83
2024/01/17 07:25:55;;;;;;;;;;;;;;;3.29;58.16;99906.94;5091558;23;19961;-84
2024/01/17 07:28:49;;;;;;;;;;;;;;;3.33;57.58;99907.53;5001731;28;19981;-83
2024/01/17 07:31:28;;;;;;;;;;;;;;;3.35;57.91;99898.63;4999274;28;19922;-83
2024/01/17 07:36:56;;;;;;;;;;;;;;;3.43;57.42;99904.03;5033842;23;19910;-82
2024/01/17 07:39:32;;;;;;;;;;;;;;;3.50;57.29;99901.78;4982726;28;19913;-83
2024/01/17 07:42:21;;;;;;;;;;;;;;;3.59;57.73;99913.25;4982293;28;19912;-81
2024/01/17 08:24:25;;;;;;;;;;;;;;;4.43;56.57;99878.34;5017255;28;19989;-84
2024/01/17 08:26:50;;;;;;;;;;;;;;;4.44;56.33;99874.78;4999211;28;19961;-85
2024/01/17 08:29:22;;;;;;;;;;;;;;;4.52;56.65;99887.22;4998733;28;19980;-85
2024/01/17 08:31:51;;;;;;;;;;;;;;;4.55;56.31;99886.97;4998049;28;19952;-85
2024/01/17 08:34:17;;;;;;;;;;;;;;;4.61;56.25;99883.81;4995381;28;19929;-85
2024/01/17 08:36:42;;;;;;;;;;;;;;;4.65;55.98;99886.03;4992919;28;19926;-86
2024/01/17 08:39:08;;;;;;;;;;;;;;;4.74;56.32;99880.03;4994871;28;19918;-87
2024/01/17 08:41:34;;;;;;;;;;;;;;;4.78;56.20;99873.56;4976700;28;20446;-87
2024/01/17 08:44:00;;;;;;;;;;;;;;;4.85;55.98;99879.09;4994658;28;19968;-87
2024/01/17 08:46:25;;;;;;;;;;;;;;;4.89;55.89;99869.19;4989929;28;19917;-89
2024/01/17 08:48:50;;;;;;;;;;;;;;;4.94;56.07;99869.59;4994352;28;20406;-88
2024/01/17 08:51:17;;;;;;;;;;;;;;;4.98;55.55;99868.38;4990596;28;19918;-87
2024/01/17 08:53:42;;;;;;;;;;;;;;;5.01;55.82;99866.31;4993684;28;20404;-88
2024/01/17 08:56:09;;;;;;;;;;;;;;;5.02;55.58;99870.59;4992884;28;19918;-88
2024/01/17 08:58:34;;;;;;;;;;;;;;;5.05;55.72;99870.31;4992159;28;19922;-87
2024/01/17 09:01:01;;;;;;;;;;;;;;;5.09;55.51;99876.13;4976762;28;20441;-89
2024/01/17 09:03:29;;;;;;;;;;;;;;;5.10;55.69;99865.50;4993850;28;20311;-88
2024/01/17 09:05:54;;;;;;;;;;;;;;;5.18;55.38;99859.59;4974555;28;19917;-88
2024/01/17 09:08:19;;;;;;;;;;;;;;;5.21;55.62;99858.53;4992808;28;19917;-89
2024/01/17 09:10:44;;;;;;;;;;;;;;;5.29;55.55;99856.06;4969502;28;20438;-89
2024/01/17 09:13:12;;;;;;;;;;;;;;;5.31;55.05;99844.50;4987425;28;19922;-90
2024/01/17 09:15:37;;;;;;;;;;;;;;;5.33;55.71;99828.63;4971549;28;20392;-88
2024/01/17 09:18:04;;;;;;;;;;;;;;;5.32;55.47;99827.81;4975936;28;19924;-88
2024/01/17 09:20:29;;;;;;;;;;;;;;;5.39;55.88;99828.09;4993490;28;19922;-89
2024/01/17 09:22:54;;;;;;;;;;;;;;;5.47;55.76;99824.78;4993400;28;20406;-89
2024/01/17 09:25:21;;;;;;;;;;;;;;;5.55;55.36;99814.44;4975825;28;19914;-90
2024/01/17 09:27:47;;;;;;;;;;;;;;;5.63;55.57;99801.47;4971743;28;19941;-89
2024/01/17 09:30:12;;;;;;;;;;;;;;;5.71;55.09;99802.41;4989329;28;20318;-89
2024/01/17 09:32:38;;;;;;;;;;;;;;;5.80;54.81;99797.31;4970931;28;19925;-88
2024/01/17 09:35:04;;;;;;;;;;;;;;;5.92;55.04;99804.06;4980090;28;19922;-88
2024/01/17 09:37:29;;;;;;;;;;;;;;;5.96;55.11;99789.75;4998678;28;19917;-91
2024/01/17 09:39:54;;;;;;;;;;;;;;;6.02;54.67;99776.06;4973088;28;19918;-91
2024/01/17 09:42:20;;;;;;;;;;;;;;;6.07;55.34;99775.63;4991443;28;20311;-90
2024/01/17 09:44:46;;;;;;;;;;;;;;;6.14;54.91;99769.66;4975572;28;20334;-90
2024/01/17 09:47:15;;;;;;;;;;;;;;;6.23;54.19;99770.59;4993689;28;19914;-90
2024/01/17 09:49:41;;;;;;;;;;;;;;;6.36;54.61;99768.47;4976149;28;19921;-89
2024/01/17 09:52:06;;;;;;;;;;;;;;;6.37;54.25;99760.47;4991967;28;19918;-88
2024/01/17 09:54:33;;;;;;;;;;;;;;;6.46;54.64;99756.13;4974423;28;19922;-90
2024/01/17 09:57:01;;;;;;;;;;;;;;;6.56;54.34;99749.03;4974814;28;19925;-90
2024/01/17 09:59:29;;;;;;;;;;;;;;;6.65;54.16;99750.78;4972100;28;19922;-90
2024/01/17 10:01:55;;;;;;;;;;;;;;;6.77;53.47;99743.53;4987060;28;20418;-90
2024/01/17 10:04:21;;;;;;;;;;;;;;;6.83;54.26;99734.25;4969457;28;19925;-90
2024/01/17 10:06:48;;;;;;;;;;;;;;;6.92;54.24;99735.97;4992983;28;19913;-90
2024/01/17 10:09:14;;;;;;;;;;;;;;;7.02;53.72;99723.59;4991884;28;19920;-89
2024/01/17 10:11:39;;;;;;;;;;;;;;;7.17;53.46;99718.63;4993079;28;19918;-88
2024/01/17 10:14:04;;;;;;;;;;;;;;;7.27;53.45;99727.25;4987228;28;19995;-89
2024/01/17 10:16:31;;;;;;;;;;;;;;;7.36;53.96;99720.25;4973173;28;20008;-89
2024/01/17 10:18:57;;;;;;;;;;;;;;;7.41;53.77;99718.81;4974577;28;19961;-89
2024/01/17 10:21:22;;;;;;;;;;;;;;;7.51;53.71;99719.56;4974153;28;19926;-88
2024/01/17 10:23:48;;;;;;;;;;;;;;;7.59;54.22;99724.88;4974201;28;19925;-89
2024/01/17 10:26:14;;;;;;;;;;;;;;;7.66;53.65;99717.19;4991629;28;20048;-89
2024/01/17 10:28:39;;;;;;;;;;;;;;;7.70;53.87;99718.53;4987673;28;19917;-89
2024/01/17 10:31:07;;;;;;;;;;;;;;;7.74;53.42;99716.44;4992878;28;20441;-89
2024/01/17 10:33:32;;;;;;;;;;;;;;;7.72;53.30;99710.50;4972173;28;20319;-89
2024/01/17 10:36:01;;;;;;;;;;;;;;;7.77;54.19;99710.84;4974933;28;19918;-89
2024/01/17 10:38:31;;;;;;;;;;;;;;;7.80;53.95;99707.91;4975392;28;19917;-89
2024/01/17 10:41:02;;;;;;;;;;;;;;;7.86;53.43;99708.13;4976581;28;19922;-89
2024/01/17 10:43:27;;;;;;;;;;;;;;;7.85;53.71;99706.47;4978339;28;19969;-89
2024/01/17 10:45:55;;;;;;;;;;;;;;;7.89;53.42;99706.97;4975250;28;20358;-89
2024/01/17 10:48:22;;;;;;;;;;;;;;;7.92;53.14;99696.97;4991100;28;19925;-89
2024/01/17 10:50:48;;;;;;;;;;;;;;;7.97;53.03;99696.50;4987936;28;19918;-89
2024/01/17 10:53:15;;;;;;;;;;;;;;;7.96;53.08;99686.97;4992897;28;19973;-89
2024/01/17 10:55:44;;;;;;;;;;;;;;;7.93;52.78;99672.34;4992681;28;19920;-88
2024/01/17 10:58:11;;;;;;;;;;;;;;;7.93;52.87;99677.59;4981946;28;19917;-89
2024/01/17 11:00:38;;;;;;;;;;;;;;;7.94;53.43;99673.16;4991709;28;19921;-89
2024/01/17 11:03:08;;;;;;;;;;;;;;;7.93;53.06;99672.34;4987909;28;20031;-90
2024/01/17 11:05:37;;;;;;;;;;;;;;;7.96;52.90;99674.66;4993001;28;19914;-89
2024/01/17 11:08:03;;;;;;;;;;;;;;;7.97;53.14;99668.41;4970799;28;19976;-89
2024/01/17 11:10:29;;;;;;;;;;;;;;;8.00;53.09;99659.38;4977364;28;19976;-87
2024/01/17 11:12:55;;;;;;;;;;;;;;;7.98;53.01;99653.44;4987118;28;19976;-90
2024/01/17 11:15:21;;;;;;;;;;;;;;;8.00;52.82;99640.97;4986355;28;19980;-87
2024/01/17 11:17:47;;;;;;;;;;;;;;;8.01;53.29;99642.63;4974500;28;20391;-89
2024/01/17 11:20:15;;;;;;;;;;;;;;;8.01;53.41;99640.00;4989322;28;19933;-89
2024/01/17 11:22:41;;;;;;;;;;;;;;;8.03;52.90;99631.94;4978675;28;20175;-89
2024/01/17 11:25:16;;;;;;;;;;;;;;;8.06;52.93;99629.00;4990171;28;19913;-89
2024/01/17 11:27:55;;;;;;;;;;;;;;;8.07;53.07;99623.56;4990687;28;19921;-89
2024/01/17 11:30:32;;;;;;;;;;;;;;;8.10;53.06;99619.81;4990635;28;19918;-89
2024/01/17 11:33:00;;;;;;;;;;;;;;;8.12;53.10;99625.72;4989135;28;19933;-89
2024/01/17 11:35:46;;;;;;;;;;;;;;;8.11;52.98;99630.16;4973508;28;19918;-89
2024/01/17 11:38:12;;;;;;;;;;;;;;;8.11;53.03;99619.63;4983574;28;19943;-89
2024/01/17 11:40:37;;;;;;;;;;;;;;;8.09;52.65;99612.91;5003332;28;19913;-89
2024/01/17 11:43:03;;;;;;;;;;;;;;;8.10;53.02;99599.59;5011451;28;19918;-89
2024/01/17 11:45:28;;;;;;;;;;;;;;;8.10;53.16;99599.59;4981520;28;19917;-89
2024/01/17 11:47:56;;;;;;;;;;;;;;;8.13;53.18;99596.63;4995293;28;19953;-89
2024/01/17 11:50:22;;;;;;;;;;;;;;;8.14;53.21;99587.75;4984873;28;19918;-88
2024/01/17 11:52:47;;;;;;;;;;;;;;;8.15;52.95;99588.59;4982592;28;20010;-89
2024/01/17 11:55:13;;;;;;;;;;;;;;;8.17;53.17;99582.19;4988839;28;20406;-88
2024/01/17 11:57:40;;;;;;;;;;;;;;;8.18;53.09;99580.41;4974356;28;20001;-89
2024/01/17 12:00:11;;;;;;;;;;;;;;;8.19;52.80;99566.28;4974674;28;19917;-89
2024/01/17 12:02:37;;;;;;;;;;;;;;;8.20;52.73;99562.66;4977997;28;19914;-89
2024/01/17 12:05:04;;;;;;;;;;;;;;;8.23;52.84;99560.53;4978113;28;19924;-89
2024/01/17 12:07:30;;;;;;;;;;;;;;;8.24;53.09;99562.16;4977811;28;19972;-89
2024/01/17 12:09:56;;;;;;;;;;;;;;;8.25;52.76;99563.00;4994789;28;19921;-88
2024/01/17 12:12:24;;;;;;;;;;;;;;;8.25;52.84;99568.25;4995255;28;19918;-88
2024/01/17 12:14:49;;;;;;;;;;;;;;;8.25;53.20;99563.00;4959765;28;19918;-89
2024/01/17 12:17:15;;;;;;;;;;;;;;;8.24;52.79;99564.78;4975227;28;19914;-89
2024/01/17 12:19:40;;;;;;;;;;;;;;;7.60;53.22;99450.63;4982305;28;19921;-88
2024/01/17 12:22:06;;;;;;;;;;;;;;;8.29;52.78;99554.59;4993495;28;19917;-89
2024/01/17 12:24:31;;;;;;;;;;;;;;;8.29;53.05;99556.41;4993449;28;20388;-89
2024/01/17 12:26:56;;;;;;;;;;;;;;;8.31;53.19;99551.00;4990928;28;20387;-89
2024/01/17 12:29:21;;;;;;;;;;;;;;;8.32;53.00;99552.63;4993265;28;20394;-89
2024/01/17 12:31:47;;;;;;;;;;;;;;;8.31;52.93;99546.56;4992978;28;20001;-89
2024/01/17 12:34:12;;;;;;;;;;;;;;;8.32;53.11;99547.38;4994133;28;19976;-88
2024/01/17 12:36:38;;;;;;;;;;;;;;;8.33;52.92;99551.66;4993139;28;19964;-89
2024/01/17 12:39:04;;;;;;;;;;;;;;;8.34;52.60;99541.00;4992974;28;20394;-89
2024/01/17 12:41:31;;;;;;;;;;;;;;;8.36;53.01;99543.47;4989405;28;20411;-89
2024/01/17 12:43:56;;;;;;;;;;;;;;;8.36;53.40;99546.09;4994430;28;19968;-89
2024/01/17 12:46:21;;;;;;;;;;;;;;;8.38;52.50;99544.13;4994019;28;19918;-89
2024/01/17 12:48:51;;;;;;;;;;;;;;;8.37;52.76;99539.84;4993482;28;19921;-88
2024/01/17 12:51:17;;;;;;;;;;;;;;;8.35;52.58;99534.75;4991210;28;19928;-88
2024/01/17 12:53:42;;;;;;;;;;;;;;;8.36;52.67;99541.66;4993911;28;19925;-89
2024/01/17 12:56:09;;;;;;;;;;;;;;;8.38;53.19;99544.13;4994237;28;20384;-88
2024/01/17 12:58:34;;;;;;;;;;;;;;;8.37;52.95;99540.66;4993177;28;19918;-88
2024/01/17 13:01:00;;;;;;;;;;;;;;;8.38;52.66;99538.88;4984212;28;19925;-88
2024/01/17 13:03:26;;;;;;;;;;;;;;;8.36;52.99;99528.50;4976431;28;19961;-88
2024/01/17 13:06:00;;;;;;;;;;;;;;;8.37;52.84;99537.22;4976687;28;19957;-88
2024/01/17 13:08:25;;;;;;;;;;;;;;;8.36;53.07;99539.03;4985634;28;19971;-89
2024/01/17 13:10:52;;;;;;;;;;;;;;;8.36;52.89;99540.84;4992252;28;20004;-88
2024/01/17 13:13:24;;;;;;;;;;;;;;;8.35;52.73;99545.28;4993646;28;20020;-88
2024/01/17 13:15:53;;;;;;;;;;;;;;;8.36;52.99;99536.41;4990602;28;19952;-87
2024/01/17 13:18:23;;;;;;;;;;;;;;;8.37;53.16;99538.03;4989652;28;20435;-88
2024/01/17 13:20:48;;;;;;;;;;;;;;;8.37;52.72;99531.97;4990936;28;19922;-88
2024/01/17 13:23:14;;;;;;;;;;;;;;;8.35;52.61;99540.00;4990389;28;19914;-88
2024/01/17 13:25:40;;;;;;;;;;;;;;;8.35;52.75;99528.66;4992154;28;19914;-89
2024/01/17 13:28:05;;;;;;;;;;;;;;;8.36;52.46;99527.69;4989505;28;19917;-88
2024/01/17 13:30:37;;;;;;;;;;;;;;;8.38;52.74;99523.91;4985222;28;19976;-89
2024/01/17 13:33:08;;;;;;;;;;;;;;;8.37;52.65;99524.88;4968530;28;19984;-88
2024/01/17 13:35:34;;;;;;;;;;;;;;;8.39;52.81;99517.66;4993013;28;19914;-88
2024/01/17 13:37:59;;;;;;;;;;;;;;;8.38;52.78;99518.63;4976166;28;19996;-89
2024/01/17 13:40:26;;;;;;;;;;;;;;;8.39;52.62;99525.53;4973501;28;20386;-89
2024/01/17 13:42:52;;;;;;;;;;;;;;;8.40;52.67;99527.19;4973559;28;19918;-89
2024/01/17 13:45:18;;;;;;;;;;;;;;;8.43;52.78;99521.59;4970667;28;19924;-88
2024/01/17 13:47:43;;;;;;;;;;;;;;;8.46;52.65;99531.78;4981412;28;19918;-88
2024/01/17 13:50:21;;;;;;;;;;;;;;;8.48;52.88;99536.88;4991645;28;19972;-88
2024/01/17 13:52:50;;;;;;;;;;;;;;;8.51;53.04;99534.75;4982312;28;20403;-88
2024/01/17 13:55:15;;;;;;;;;;;;;;;8.51;52.76;99528.66;4970092;28;20357;-88
2024/01/17 13:57:41;;;;;;;;;;;;;;;8.48;52.65;99524.56;4988179;28;20010;-88
2024/01/17 14:00:07;;;;;;;;;;;;;;;8.49;52.91;99506.97;4965125;28;19926;-88
2024/01/17 14:02:32;;;;;;;;;;;;;;;8.47;52.74;99495.78;4992864;28;19971;-88
2024/01/17 14:04:57;;;;;;;;;;;;;;;8.47;52.75;99495.78;4992057;28;19917;-88
2024/01/17 14:07:23;;;;;;;;;;;;;;;8.46;52.73;99494.94;4975246;28;20383;-87
2024/01/17 14:09:48;;;;;;;;;;;;;;;8.46;52.87;99494.94;4974224;28;20043;-87
2024/01/17 14:12:13;;;;;;;;;;;;;;;8.45;52.54;99485.41;4963839;28;19918;-88
2024/01/17 14:14:39;;;;;;;;;;;;;;;8.46;52.75;99491.50;4957933;28;19922;-87
2024/01/17 14:17:04;;;;;;;;;;;;;;;8.44;52.75;99496.94;4979703;28;20021;-88
2024/01/17 14:19:30;;;;;;;;;;;;;;;8.44;52.59;99488.22;4974054;28;19929;-88
2024/01/17 14:21:55;;;;;;;;;;;;;;;8.44;52.51;99475.06;4990414;28;19913;-88
2024/01/17 14:24:20;;;;;;;;;;;;;;;8.41;52.73;99470.13;4972209;28;19971;-88
2024/01/17 14:26:46;;;;;;;;;;;;;;;8.39;52.90;99472.94;4975520;28;19972;-88
2024/01/17 14:29:11;;;;;;;;;;;;;;;8.38;52.81;99471.28;4989754;28;19980;-88
2024/01/17 14:31:36;;;;;;;;;;;;;;;8.38;53.02;99473.09;4991703;28;20471;-88
2024/01/17 14:34:01;;;;;;;;;;;;;;;8.35;52.56;99476.88;4990187;28;19930;-88
2024/01/17 14:36:27;;;;;;;;;;;;;;;8.32;52.74;99469.28;4955634;28;19961;-88
2024/01/17 14:38:52;;;;;;;;;;;;;;;8.31;52.59;99465.00;4972847;28;20399;-88
2024/01/17 14:41:22;;;;;;;;;;;;;;;8.31;52.90;99466.81;4975448;28;19925;-88
2024/01/17 14:43:47;;;;;;;;;;;;;;;8.28;53.09;99467.97;4974628;28;20384;-88
2024/01/17 14:46:15;;;;;;;;;;;;;;;8.27;52.87;99461.06;4973089;28;19925;-88
2024/01/17 14:48:42;;;;;;;;;;;;;;;8.23;53.08;99463.22;4991059;28;19922;-88
2024/01/17 14:51:07;;;;;;;;;;;;;;;8.20;52.86;99467.97;4987667;28;20060;-88
2024/01/17 14:53:32;;;;;;;;;;;;;;;8.15;52.76;99476.31;4983345;28;20042;-88
2024/01/17 14:55:58;;;;;;;;;;;;;;;8.11;52.87;99475.00;4980958;28;19918;-88
2024/01/17 14:58:23;;;;;;;;;;;;;;;8.07;52.85;99465.81;4991960;28;20391;-88
2024/01/17 15:00:48;;;;;;;;;;;;;;;8.05;52.85;99470.41;4991192;28;19914;-88
2024/01/17 15:03:13;;;;;;;;;;;;;;;8.02;52.69;99457.59;4990781;28;19914;-88
2024/01/17 15:05:39;;;;;;;;;;;;;;;7.98;52.90;99462.34;4989029;28;19917;-88
2024/01/17 15:08:05;;;;;;;;;;;;;;;7.95;53.30;99453.97;4991035;28;19920;-88
2024/01/17 15:10:30;;;;;;;;;;;;;;;7.93;52.96;99453.31;4992674;28;20335;-88
2024/01/17 15:12:56;;;;;;;;;;;;;;;7.91;53.63;99465.78;4991330;28;19918;-88
2024/01/17 15:15:21;;;;;;;;;;;;;;;7.85;53.45;99483.03;4974544;28;19922;-88
2024/01/17 15:17:46;;;;;;;;;;;;;;;7.79;53.77;99481.06;4991425;28;19968;-88
2024/01/17 15:20:12;;;;;;;;;;;;;;;7.73;53.90;99473.81;4991729;28;19997;-88
2024/01/17 15:22:37;;;;;;;;;;;;;;;7.71;53.57;99480.22;4993399;28;19996;-89
2024/01/17 15:25:03;;;;;;;;;;;;;;;7.71;53.53;99472.34;4981208;28;19922;-88
2024/01/17 15:27:28;;;;;;;;;;;;;;;7.70;53.73;99479.41;4992658;28;19964;-88
2024/01/17 15:29:53;;;;;;;;;;;;;;;7.67;53.77;99477.09;4994302;28;20291;-88
2024/01/17 15:32:18;;;;;;;;;;;;;;;7.63;54.14;99468.72;4994086;28;19925;-89
2024/01/17 15:34:44;;;;;;;;;;;;;;;7.59;54.14;99464.75;4993090;28;19992;-88
2024/01/17 15:37:09;;;;;;;;;;;;;;;7.55;53.67;99475.75;4992253;28;19922;-88
2024/01/17 15:39:36;;;;;;;;;;;;;;;7.52;54.35;99486.56;4980642;28;19917;-88
2024/01/17 15:42:01;;;;;;;;;;;;;;;7.47;54.20;99488.88;4975970;28;20013;-88
2024/01/17 15:44:28;;;;;;;;;;;;;;;7.42;54.21;99483.22;4976088;28;20012;-88
2024/01/17 15:46:53;;;;;;;;;;;;;;;7.39;54.95;99486.19;4993199;28;19913;-88
2024/01/17 15:49:18;;;;;;;;;;;;;;;7.37;55.01;99480.25;4992459;28;19925;-88
2024/01/17 15:51:44;;;;;;;;;;;;;;;7.29;54.59;99476.63;4994030;28;19914;-88